sensor_id;sensor_type;location;lat;lon;timestamp;pressure;altitude;pressure_sealevel;temperature;humidity
72086;BME280;64750;52.134;5.424;2023-02-23T00:00:09;101499.94;;;8.17;88.82
72086;BME280;64750;52.134;5.424;2023-02-23T00:02:55;101511.44;;;8.13;89.23
72086;BME280;64750;52.134;5.424;2023-02-23T00:05:25;101516.69;;;8.13;89.07
72086;BME280;64750;52.134;5.424;2023-02-23T00:07:51;101515.94;;;8.10;89.06
72086;BME280;64750;52.134;5.424;2023-02-23T00:10:20;101516.84;;;8.09;89.46
72086;BME280;64750;52.134;5.424;2023-02-23T00:12:47;101515.94;;;8.10;89.37
72086;BME280;64750;52.134;5.424;2023-02-23T00:15:16;101513.25;;;8.11;89.48
72086;BME280;64750;52.134;5.424;2023-02-23T00:17:43;101510.59;;;8.13;89.31
72086;BME280;64750;52.134;5.424;2023-02-23T00:20:10;101503.66;;;8.12;89.41
72086;BME280;64750;52.134;5.424;2023-02-23T00:22:38;101503.66;;;8.12;89.67
72086;BME280;64750;52.134;5.424;2023-02-23T00:25:09;101508.03;;;8.11;89.21
72086;BME280;64750;52.134;5.424;2023-02-23T00:27:37;101502.91;;;8.08;89.25
72086;BME280;64750;52.134;5.424;2023-02-23T00:30:11;101498.59;;;8.07;89.44
72086;BME280;64750;52.134;5.424;2023-02-23T00:32:38;101498.72;;;8.04;89.25
72086;BME280;64750;52.134;5.424;2023-02-23T00:35:05;101496.94;;;8.04;89.59
72086;BME280;64750;52.134;5.424;2023-02-23T00:37:36;101500.38;;;8.07;89.61
72086;BME280;64750;52.134;5.424;2023-02-23T00:40:04;101493.28;;;8.09;89.55
72086;BME280;64750;52.134;5.424;2023-02-23T00:42:46;101491.78;;;8.03;89.30
72086;BME280;64750;52.134;5.424;2023-02-23T00:45:13;101496.19;;;8.01;89.51
72086;BME280;64750;52.134;5.424;2023-02-23T00:47:42;101499.75;;;8.00;89.58
72086;BME280;64750;52.134;5.424;2023-02-23T00:50:14;101498.13;;;7.97;89.58
72086;BME280;64750;52.134;5.424;2023-02-23T00:52:42;101496.34;;;7.98;89.47
72086;BME280;64750;52.134;5.424;2023-02-23T00:55:13;101497.25;;;7.97;89.53
72086;BME280;64750;52.134;5.424;2023-02-23T00:57:40;101504.31;;;7.95;89.77
72086;BME280;64750;52.134;5.424;2023-02-23T01:00:09;101499.09;;;7.95;89.72
72086;BME280;64750;52.134;5.424;2023-02-23T01:02:53;101498.16;;;7.96;89.78
72086;BME280;64750;52.134;5.424;2023-02-23T01:05:20;101498.88;;;7.99;89.56
72086;BME280;64750;52.134;5.424;2023-02-23T01:07:47;101494.53;;;8.00;89.88
72086;BME280;64750;52.134;5.424;2023-02-23T01:10:14;101496.19;;;8.01;89.98
72086;BME280;64750;52.134;5.424;2023-02-23T01:12:48;101500.78;;;7.96;89.61
72086;BME280;64750;52.134;5.424;2023-02-23T01:15:16;101499.03;;;7.96;89.66
72086;BME280;64750;52.134;5.424;2023-02-23T01:17:44;101498.16;;;7.96;89.85
72086;BME280;64750;52.134;5.424;2023-02-23T01:20:12;101504.34;;;7.93;90.12
72086;BME280;64750;52.134;5.424;2023-02-23T01:22:48;101499.25;;;7.90;89.81
72086;BME280;64750;52.134;5.424;2023-02-23T01:25:16;101499.31;;;7.88;89.76
72086;BME280;64750;52.134;5.424;2023-02-23T01:27:43;101502.94;;;7.84;90.21
72086;BME280;64750;52.134;5.424;2023-02-23T01:30:12;101496.69;;;7.88;89.94
72086;BME280;64750;52.134;5.424;2023-02-23T01:32:40;101505.28;;;7.92;90.11
72086;BME280;64750;52.134;5.424;2023-02-23T01:35:08;101511.25;;;7.96;89.74
72086;BME280;64750;52.134;5.424;2023-02-23T01:37:36;101505.22;;;7.94;89.99
72086;BME280;64750;52.134;5.424;2023-02-23T01:40:26;101506.81;;;7.98;89.77
72086;BME280;64750;52.134;5.424;2023-02-23T01:43:13;101509.44;;;7.98;89.91
72086;BME280;64750;52.134;5.424;2023-02-23T01:45:41;101498.88;;;7.99;89.90
72086;BME280;64750;52.134;5.424;2023-02-23T01:48:11;101513.00;;;7.95;89.92
72086;BME280;64750;52.134;5.424;2023-02-23T01:50:59;101505.22;;;7.94;89.86
72086;BME280;64750;52.134;5.424;2023-02-23T01:53:30;101505.09;;;7.97;89.60
72086;BME280;64750;52.134;5.424;2023-02-23T01:56:07;101512.84;;;8.00;89.91
72086;BME280;64750;52.134;5.424;2023-02-23T01:58:41;101497.97;;;8.00;89.62
72086;BME280;64750;52.134;5.424;2023-02-23T02:01:09;101509.19;;;8.04;89.53
72086;BME280;64750;52.134;5.424;2023-02-23T02:03:43;101506.56;;;8.04;89.76
72086;BME280;64750;52.134;5.424;2023-02-23T02:06:14;101504.81;;;8.04;89.90
72086;BME280;64750;52.134;5.424;2023-02-23T02:08:45;101500.44;;;8.05;89.79
72086;BME280;64750;52.134;5.424;2023-02-23T02:11:17;101508.28;;;8.05;89.80
72086;BME280;64750;52.134;5.424;2023-02-23T02:28:26;101510.09;;;8.03;89.36
72086;BME280;64750;52.134;5.424;2023-02-23T02:31:13;101508.38;;;8.02;89.27
72086;BME280;64750;52.134;5.424;2023-02-23T02:37:03;101510.22;;;8.00;89.42
72086;BME280;64750;52.134;5.424;2023-02-23T02:39:31;101519.09;;;7.96;89.65
72086;BME280;64750;52.134;5.424;2023-02-23T02:42:20;101513.84;;;7.96;89.42
72086;BME280;64750;52.134;5.424;2023-02-23T02:44:57;101513.81;;;7.97;89.54
72086;BME280;64750;52.134;5.424;2023-02-23T02:47:38;101510.47;;;7.94;89.81
72086;BME280;64750;52.134;5.424;2023-02-23T02:50:13;101510.56;;;7.91;89.94
72086;BME280;64750;52.134;5.424;2023-02-23T02:52:50;101507.25;;;7.85;89.82
72086;BME280;64750;52.134;5.424;2023-02-23T02:55:23;101505.63;;;7.83;90.11
72086;BME280;64750;52.134;5.424;2023-02-23T02:57:55;101509.94;;;7.84;90.32
72086;BME280;64750;52.134;5.424;2023-02-23T03:00:46;101509.09;;;7.83;90.46
72086;BME280;64750;52.134;5.424;2023-02-23T03:03:36;101500.31;;;7.84;90.61
72086;BME280;64750;52.134;5.424;2023-02-23T03:06:25;101503.75;;;7.86;90.64
72086;BME280;64750;52.134;5.424;2023-02-23T03:09:26;101502.16;;;7.82;90.31
72086;BME280;64750;52.134;5.424;2023-02-23T03:12:31;101498.63;;;7.83;90.98
72086;BME280;64750;52.134;5.424;2023-02-23T03:15:44;101505.56;;;7.84;90.79
72086;BME280;64750;52.134;5.424;2023-02-23T03:18:42;101507.25;;;7.85;90.72
72086;BME280;64750;52.134;5.424;2023-02-23T03:24:54;101511.59;;;7.86;91.00
72086;BME280;64750;52.134;5.424;2023-02-23T03:28:15;101505.47;;;7.87;91.01
72086;BME280;64750;52.134;5.424;2023-02-23T03:36:47;101514.00;;;7.93;90.76
72086;BME280;64750;52.134;5.424;2023-02-23T03:39:43;101514.81;;;7.93;91.09
72086;BME280;64750;52.134;5.424;2023-02-23T03:42:33;101511.38;;;7.93;91.01
72086;BME280;64750;52.134;5.424;2023-02-23T03:45:23;101519.31;;;7.89;91.10
72086;BME280;64750;52.134;5.424;2023-02-23T03:48:11;101518.59;;;7.86;91.05
72086;BME280;64750;52.134;5.424;2023-02-23T03:51:03;101518.53;;;7.87;91.04
72086;BME280;64750;52.134;5.424;2023-02-23T03:53:54;101528.09;;;7.88;91.24
72086;BME280;64750;52.134;5.424;2023-02-23T03:56:45;101527.16;;;7.89;91.47
72086;BME280;64750;52.134;5.424;2023-02-23T03:59:37;101531.50;;;7.91;91.45
72086;BME280;64750;52.134;5.424;2023-02-23T04:02:24;101529.78;;;7.89;91.34
72086;BME280;64750;52.134;5.424;2023-02-23T04:05:14;101529.78;;;7.89;91.35
72086;BME280;64750;52.134;5.424;2023-02-23T04:08:02;101541.97;;;7.91;91.27
72086;BME280;64750;52.134;5.424;2023-02-23T04:10:54;101532.41;;;7.89;91.51
72086;BME280;64750;52.134;5.424;2023-02-23T04:13:44;101535.84;;;7.92;91.50
72086;BME280;64750;52.134;5.424;2023-02-23T04:16:14;101530.59;;;7.92;91.42
72086;BME280;64750;52.134;5.424;2023-02-23T04:18:40;101541.97;;;7.91;91.02
72086;BME280;64750;52.134;5.424;2023-02-23T04:21:07;101541.06;;;7.92;91.43
72086;BME280;64750;52.134;5.424;2023-02-23T04:23:34;101541.00;;;7.93;91.53
72086;BME280;64750;52.134;5.424;2023-02-23T04:26:03;101547.09;;;7.94;91.45
72086;BME280;64750;52.134;5.424;2023-02-23T04:28:30;101541.88;;;7.94;91.48
72086;BME280;64750;52.134;5.424;2023-02-23T04:30:56;101548.91;;;7.92;91.45
72086;BME280;64750;52.134;5.424;2023-02-23T04:33:23;101543.69;;;7.92;91.61
72086;BME280;64750;52.134;5.424;2023-02-23T04:35:53;101544.66;;;7.89;91.79
72086;BME280;64750;52.134;5.424;2023-02-23T04:38:20;101547.28;;;7.89;91.38
72086;BME280;64750;52.134;5.424;2023-02-23T04:40:47;101543.81;;;7.88;91.57
72086;BME280;64750;52.134;5.424;2023-02-23T04:43:13;101549.81;;;7.91;91.44
72086;BME280;64750;52.134;5.424;2023-02-23T04:45:40;101548.97;;;7.90;91.43
72086;BME280;64750;52.134;5.424;2023-02-23T04:48:07;101551.66;;;7.88;91.46
72086;BME280;64750;52.134;5.424;2023-02-23T04:50:34;101549.94;;;7.87;91.38
72086;BME280;64750;52.134;5.424;2023-02-23T04:53:00;101557.00;;;7.85;91.58
72086;BME280;64750;52.134;5.424;2023-02-23T04:55:27;101561.44;;;7.83;91.49
72086;BME280;64750;52.134;5.424;2023-02-23T04:57:58;101563.25;;;7.81;91.93
72086;BME280;64750;52.134;5.424;2023-02-23T05:00:26;101567.69;;;7.79;91.89
72086;BME280;64750;52.134;5.424;2023-02-23T05:02:55;101559.81;;;7.81;92.11
72086;BME280;64750;52.134;5.424;2023-02-23T05:05:22;101566.72;;;7.82;91.76
72086;BME280;64750;52.134;5.424;2023-02-23T05:07:48;101570.31;;;7.79;91.52
72086;BME280;64750;52.134;5.424;2023-02-23T05:10:15;101570.31;;;7.79;91.97
72086;BME280;64750;52.134;5.424;2023-02-23T05:12:41;101566.97;;;7.76;91.80
72086;BME280;64750;52.134;5.424;2023-02-23T05:15:08;101572.00;;;7.80;91.78
72086;BME280;64750;52.134;5.424;2023-02-23T05:17:37;101577.25;;;7.80;92.08
72086;BME280;64750;52.134;5.424;2023-02-23T05:20:09;101571.22;;;7.78;92.30
72086;BME280;64750;52.134;5.424;2023-02-23T05:22:36;101577.44;;;7.76;92.15
72086;BME280;64750;52.134;5.424;2023-02-23T05:25:04;101575.09;;;7.68;92.11
72086;BME280;64750;52.134;5.424;2023-02-23T05:27:31;101578.56;;;7.68;92.29
72086;BME280;64750;52.134;5.424;2023-02-23T05:29:57;101583.72;;;7.70;92.34
72086;BME280;64750;52.134;5.424;2023-02-23T05:32:24;101585.50;;;7.69;92.10
72086;BME280;64750;52.134;5.424;2023-02-23T05:34:50;101589.03;;;7.68;92.09
72086;BME280;64750;52.134;5.424;2023-02-23T05:37:17;101586.34;;;7.70;92.38
72086;BME280;64750;52.134;5.424;2023-02-23T05:39:46;101584.63;;;7.69;92.42
72086;BME280;64750;52.134;5.424;2023-02-23T05:42:12;101584.63;;;7.69;92.33
72086;BME280;64750;52.134;5.424;2023-02-23T05:44:38;101581.97;;;7.70;92.46
72086;BME280;64750;52.134;5.424;2023-02-23T05:47:05;101586.34;;;7.70;92.22
72086;BME280;64750;52.134;5.424;2023-02-23T05:49:31;101585.44;;;7.71;92.44
72086;BME280;64750;52.134;5.424;2023-02-23T05:51:58;101584.53;;;7.72;92.57
72086;BME280;64750;52.134;5.424;2023-02-23T05:54:24;101584.59;;;7.70;92.24
72086;BME280;64750;52.134;5.424;2023-02-23T05:56:51;101585.31;;;7.74;92.33
72086;BME280;64750;52.134;5.424;2023-02-23T05:59:17;101583.56;;;7.75;92.62
72086;BME280;64750;52.134;5.424;2023-02-23T06:01:43;101582.69;;;7.74;92.20
72086;BME280;64750;52.134;5.424;2023-02-23T06:04:10;101587.25;;;7.69;92.20
72086;BME280;64750;52.134;5.424;2023-02-23T06:06:36;101584.63;;;7.69;92.58
72086;BME280;64750;52.134;5.424;2023-02-23T06:09:03;101592.72;;;7.63;92.49
72086;BME280;64750;52.134;5.424;2023-02-23T06:11:30;101591.84;;;7.62;92.28
72086;BME280;64750;52.134;5.424;2023-02-23T06:13:58;101601.28;;;7.66;92.47
72086;BME280;64750;52.134;5.424;2023-02-23T06:16:25;101594.25;;;7.68;92.39
72086;BME280;64750;52.134;5.424;2023-02-23T06:18:52;101598.53;;;7.71;92.62
72086;BME280;64750;52.134;5.424;2023-02-23T06:21:19;101600.25;;;7.72;92.23
72086;BME280;64750;52.134;5.424;2023-02-23T06:23:46;101594.03;;;7.75;92.39
72086;BME280;64750;52.134;5.424;2023-02-23T06:26:12;101598.31;;;7.77;92.46
72086;BME280;64750;52.134;5.424;2023-02-23T06:28:39;101600.88;;;7.79;92.41
72086;BME280;64750;52.134;5.424;2023-02-23T06:31:05;101605.19;;;7.80;92.08
72086;BME280;64750;52.134;5.424;2023-02-23T06:33:32;101606.09;;;7.79;92.13
72086;BME280;64750;52.134;5.424;2023-02-23T06:35:58;101605.25;;;7.78;91.82
72086;BME280;64750;52.134;5.424;2023-02-23T06:38:25;101614.75;;;7.81;92.13
72086;BME280;64750;52.134;5.424;2023-02-23T06:40:53;101618.22;;;7.81;92.05
72086;BME280;64750;52.134;5.424;2023-02-23T06:43:19;101624.34;;;7.80;91.98
72086;BME280;64750;52.134;5.424;2023-02-23T06:45:48;101627.88;;;7.79;91.69
72086;BME280;64750;52.134;5.424;2023-02-23T06:48:15;101620.91;;;7.80;92.11
72086;BME280;64750;52.134;5.424;2023-02-23T06:50:42;101626.06;;;7.81;91.88
72086;BME280;64750;52.134;5.424;2023-02-23T06:53:08;101629.53;;;7.82;91.79
72086;BME280;64750;52.134;5.424;2023-02-23T06:55:35;101631.19;;;7.84;91.81
72086;BME280;64750;52.134;5.424;2023-02-23T06:58:01;101623.28;;;7.86;92.35
72086;BME280;64750;52.134;5.424;2023-02-23T07:00:28;101630.22;;;7.87;92.26
72086;BME280;64750;52.134;5.424;2023-02-23T07:02:56;101639.03;;;7.84;91.75
72086;BME280;64750;52.134;5.424;2023-02-23T07:05:23;101634.81;;;7.80;92.22
72086;BME280;64750;52.134;5.424;2023-02-23T07:07:49;101640.88;;;7.82;91.99
72086;BME280;64750;52.134;5.424;2023-02-23T07:10:17;101632.97;;;7.84;92.03
72086;BME280;64750;52.134;5.424;2023-02-23T07:12:43;101640.75;;;7.85;91.97
72086;BME280;64750;52.134;5.424;2023-02-23T07:15:10;101648.72;;;7.82;92.04
72086;BME280;64750;52.134;5.424;2023-02-23T07:17:36;101660.16;;;7.80;91.88
72086;BME280;64750;52.134;5.424;2023-02-23T07:20:03;101662.91;;;7.75;91.85
72086;BME280;64750;52.134;5.424;2023-02-23T07:22:30;101668.38;;;7.69;92.01
72086;BME280;64750;52.134;5.424;2023-02-23T07:24:56;101669.22;;;7.69;92.23
72086;BME280;64750;52.134;5.424;2023-02-23T07:27:23;101665.72;;;7.70;92.61
72086;BME280;64750;52.134;5.424;2023-02-23T07:29:49;101664.84;;;7.70;92.79
72086;BME280;64750;52.134;5.424;2023-02-23T07:32:16;101675.25;;;7.71;92.47
72086;BME280;64750;52.134;5.424;2023-02-23T07:34:42;101680.53;;;7.70;92.97
72086;BME280;64750;52.134;5.424;2023-02-23T07:37:09;101685.03;;;7.66;92.42
72086;BME280;64750;52.134;5.424;2023-02-23T07:39:35;101688.44;;;7.68;93.03
72086;BME280;64750;52.134;5.424;2023-02-23T07:42:02;101691.19;;;7.65;92.72
72086;BME280;64750;52.134;5.424;2023-02-23T07:44:29;101689.41;;;7.66;92.77
72086;BME280;64750;52.134;5.424;2023-02-23T07:46:55;101690.22;;;7.68;92.57
72086;BME280;64750;52.134;5.424;2023-02-23T07:49:22;101688.41;;;7.70;92.46
72086;BME280;64750;52.134;5.424;2023-02-23T07:51:50;101690.22;;;7.68;92.86
72086;BME280;64750;52.134;5.424;2023-02-23T07:54:16;101697.84;;;7.74;92.75
72086;BME280;64750;52.134;5.424;2023-02-23T07:56:43;101701.34;;;7.75;92.41
72086;BME280;64750;52.134;5.424;2023-02-23T07:59:09;101714.50;;;7.71;92.51
72086;BME280;64750;52.134;5.424;2023-02-23T08:01:36;101706.72;;;7.70;92.63
72086;BME280;64750;52.134;5.424;2023-02-23T08:04:02;101710.22;;;7.69;92.58
72086;BME280;64750;52.134;5.424;2023-02-23T08:06:29;101712.84;;;7.69;92.43
72086;BME280;64750;52.134;5.424;2023-02-23T08:08:58;101712.75;;;7.72;92.68
72086;BME280;64750;52.134;5.424;2023-02-23T08:11:25;101702.16;;;7.75;93.02
72086;BME280;64750;52.134;5.424;2023-02-23T08:13:55;101707.53;;;7.72;92.40
72086;BME280;64750;52.134;5.424;2023-02-23T08:16:30;101713.66;;;7.71;92.81
72086;BME280;64750;52.134;5.424;2023-02-23T08:18:57;101717.19;;;7.70;92.53
72086;BME280;64750;52.134;5.424;2023-02-23T08:21:25;101718.78;;;7.74;92.60
72086;BME280;64750;52.134;5.424;2023-02-23T08:23:52;101717.94;;;7.74;92.96
72086;BME280;64750;52.134;5.424;2023-02-23T08:26:19;101718.91;;;7.71;92.67
72086;BME280;64750;52.134;5.424;2023-02-23T08:28:45;101720.59;;;7.72;92.95
72086;BME280;64750;52.134;5.424;2023-02-23T08:31:13;101728.47;;;7.72;93.23
72086;BME280;64750;52.134;5.424;2023-02-23T08:33:41;101732.81;;;7.71;92.92
72086;BME280;64750;52.134;5.424;2023-02-23T08:36:07;101733.75;;;7.70;92.90
72086;BME280;64750;52.134;5.424;2023-02-23T08:38:34;101737.22;;;7.71;92.57
72086;BME280;64750;52.134;5.424;2023-02-23T08:41:04;101746.84;;;7.70;92.71
72086;BME280;64750;52.134;5.424;2023-02-23T08:43:31;101739.81;;;7.71;93.12
72086;BME280;64750;52.134;5.424;2023-02-23T08:45:57;101749.47;;;7.69;93.32
72086;BME280;64750;52.134;5.424;2023-02-23T08:48:24;101747.69;;;7.71;93.12
72086;BME280;64750;52.134;5.424;2023-02-23T08:50:55;101748.56;;;7.70;93.55
72086;BME280;64750;52.134;5.424;2023-02-23T08:53:21;101758.19;;;7.69;93.12
72086;BME280;64750;52.134;5.424;2023-02-23T08:56:01;101754.69;;;7.70;93.51
72086;BME280;64750;52.134;5.424;2023-02-23T08:58:29;101750.19;;;7.74;93.38
72086;BME280;64750;52.134;5.424;2023-02-23T09:00:56;101761.47;;;7.76;93.27
72086;BME280;64750;52.134;5.424;2023-02-23T09:03:24;101756.97;;;7.80;93.48
72086;BME280;64750;52.134;5.424;2023-02-23T09:05:51;101762.16;;;7.81;93.26
72086;BME280;64750;52.134;5.424;2023-02-23T09:08:18;101765.69;;;7.80;93.05
72086;BME280;64750;52.134;5.424;2023-02-23T09:10:45;101768.41;;;7.77;93.04
72086;BME280;64750;52.134;5.424;2023-02-23T09:13:12;101765.84;;;7.76;92.87
72086;BME280;64750;52.134;5.424;2023-02-23T09:15:39;101772.78;;;7.77;93.13
72086;BME280;64750;52.134;5.424;2023-02-23T09:18:08;101768.41;;;7.77;93.32
72086;BME280;64750;52.134;5.424;2023-02-23T09:20:35;101775.44;;;7.75;93.03
72086;BME280;64750;52.134;5.424;2023-02-23T09:23:02;101773.78;;;7.72;93.25
72086;BME280;64750;52.134;5.424;2023-02-23T09:25:28;101774.66;;;7.73;93.25
72086;BME280;64750;52.134;5.424;2023-02-23T09:27:56;101778.88;;;7.77;93.22
72086;BME280;64750;52.134;5.424;2023-02-23T09:30:25;101779.66;;;7.79;93.55
72086;BME280;64750;52.134;5.424;2023-02-23T09:32:53;101785.72;;;7.81;93.38
72086;BME280;64750;52.134;5.424;2023-02-23T09:35:22;101781.38;;;7.80;93.00
72086;BME280;64750;52.134;5.424;2023-02-23T09:37:51;101787.44;;;7.82;93.25
72086;BME280;64750;52.134;5.424;2023-02-23T09:40:30;101786.47;;;7.85;92.79
72086;BME280;64750;52.134;5.424;2023-02-23T09:43:12;101794.13;;;7.91;92.89
72086;BME280;64750;52.134;5.424;2023-02-23T09:45:48;101789.72;;;7.92;92.51
72086;BME280;64750;52.134;5.424;2023-02-23T09:48:18;101800.19;;;7.92;92.31
72086;BME280;64750;52.134;5.424;2023-02-23T09:50:55;101794.97;;;7.92;91.88
72086;BME280;64750;52.134;5.424;2023-02-23T09:56:15;101795.78;;;7.94;91.83
72086;BME280;64750;52.134;5.424;2023-02-23T09:58:43;101787.94;;;7.94;91.65
72086;BME280;64750;52.134;5.424;2023-02-23T10:07:17;101786.31;;;7.89;91.03
72086;BME280;64750;52.134;5.424;2023-02-23T10:15:52;101803.47;;;7.98;91.11
72086;BME280;64750;52.134;5.424;2023-02-23T10:18:35;101801.59;;;8.02;91.44
72086;BME280;64750;52.134;5.424;2023-02-23T10:21:35;101799.88;;;8.01;90.91
72086;BME280;64750;52.134;5.424;2023-02-23T10:24:39;101798.13;;;8.01;90.96
72086;BME280;64750;52.134;5.424;2023-02-23T10:27:18;101797.25;;;8.02;90.71
72086;BME280;64750;52.134;5.424;2023-02-23T10:29:48;101795.47;;;8.03;91.09
72086;BME280;64750;52.134;5.424;2023-02-23T10:35:09;101814.59;;;8.05;90.88
72086;BME280;64750;52.134;5.424;2023-02-23T10:37:36;101815.50;;;8.04;90.76
72086;BME280;64750;52.134;5.424;2023-02-23T10:40:04;101812.88;;;8.04;90.76
72086;BME280;64750;52.134;5.424;2023-02-23T10:42:31;101810.34;;;8.01;90.72
72086;BME280;64750;52.134;5.424;2023-02-23T10:44:58;101822.59;;;8.00;90.83
72086;BME280;64750;52.134;5.424;2023-02-23T10:47:28;101822.66;;;7.99;90.96
72086;BME280;64750;52.134;5.424;2023-02-23T10:49:57;101827.09;;;7.97;90.63
72086;BME280;64750;52.134;5.424;2023-02-23T10:54:59;101827.13;;;7.95;90.30
72086;BME280;64750;52.134;5.424;2023-02-23T10:57:30;101818.59;;;7.90;89.61
72086;BME280;64750;52.134;5.424;2023-02-23T11:00:02;101820.31;;;7.91;89.59
72086;BME280;64750;52.134;5.424;2023-02-23T11:02:29;101828.09;;;7.93;89.64
72086;BME280;64750;52.134;5.424;2023-02-23T11:04:58;101825.41;;;7.94;90.04
72086;BME280;64750;52.134;5.424;2023-02-23T11:07:29;101828.84;;;7.96;89.51
72086;BME280;64750;52.134;5.424;2023-02-23T11:09:57;101813.94;;;7.98;89.29
72086;BME280;64750;52.134;5.424;2023-02-23T11:12:28;101813.91;;;8.00;89.64
72086;BME280;64750;52.134;5.424;2023-02-23T11:15:29;101819.94;;;8.02;89.58
72086;BME280;64750;52.134;5.424;2023-02-23T11:18:21;101814.59;;;8.05;89.34
72086;BME280;64750;52.134;5.424;2023-02-23T11:20:48;101814.50;;;8.08;89.49
72086;BME280;64750;52.134;5.424;2023-02-23T11:23:22;101817.06;;;8.10;89.47
72086;BME280;64750;52.134;5.424;2023-02-23T11:25:51;101822.19;;;8.13;89.73
72086;BME280;64750;52.134;5.424;2023-02-23T11:28:24;101820.38;;;8.15;89.75
72086;BME280;64750;52.134;5.424;2023-02-23T11:30:52;101822.16;;;8.14;89.29
72086;BME280;64750;52.134;5.424;2023-02-23T11:33:23;101829.25;;;8.11;89.07
72086;BME280;64750;52.134;5.424;2023-02-23T11:35:59;101835.44;;;8.08;88.81
72086;BME280;64750;52.134;5.424;2023-02-23T11:38:28;101842.38;;;8.09;88.53
72086;BME280;64750;52.134;5.424;2023-02-23T11:40:59;101835.44;;;8.08;88.53
72086;BME280;64750;52.134;5.424;2023-02-23T11:43:26;101832.00;;;8.06;88.66
72086;BME280;64750;52.134;5.424;2023-02-23T11:45:58;101833.03;;;8.02;89.21
72086;BME280;64750;52.134;5.424;2023-02-23T11:48:47;101832.00;;;8.06;89.32
72086;BME280;64750;52.134;5.424;2023-02-23T11:53:50;101832.06;;;8.04;88.78
72086;BME280;64750;52.134;5.424;2023-02-23T11:56:22;101823.41;;;8.02;89.07
72086;BME280;64750;52.134;5.424;2023-02-23T11:59:00;101826.88;;;8.03;89.19
72086;BME280;64750;52.134;5.424;2023-02-23T12:01:41;101833.03;;;8.02;89.14
72086;BME280;64750;52.134;5.424;2023-02-23T12:04:24;101830.59;;;7.96;88.79
72086;BME280;64750;52.134;5.424;2023-02-23T12:09:49;101827.97;;;7.97;88.86
72086;BME280;64750;52.134;5.424;2023-02-23T12:12:20;101832.44;;;7.94;88.64
72086;BME280;64750;52.134;5.424;2023-02-23T12:14:55;101838.44;;;7.96;89.16
72086;BME280;64750;52.134;5.424;2023-02-23T12:17:28;101832.19;;;8.01;88.96
72086;BME280;64750;52.134;5.424;2023-02-23T12:20:12;101836.47;;;8.04;88.77
72086;BME280;64750;52.134;5.424;2023-02-23T12:23:02;101832.19;;;8.01;88.69
72086;BME280;64750;52.134;5.424;2023-02-23T12:25:37;101823.38;;;8.04;88.66
72086;BME280;64750;52.134;5.424;2023-02-23T12:28:35;101838.91;;;8.09;89.00
72086;BME280;64750;52.134;5.424;2023-02-23T12:33:59;101824.25;;;8.03;88.43
72086;BME280;64750;52.134;5.424;2023-02-23T12:36:36;101819.66;;;8.10;88.89
72086;BME280;64750;52.134;5.424;2023-02-23T12:39:13;101827.47;;;8.11;88.51
72086;BME280;64750;52.134;5.424;2023-02-23T12:41:49;101821.31;;;8.12;88.63
72086;BME280;64750;52.134;5.424;2023-02-23T12:44:30;101822.94;;;8.16;88.55
72086;BME280;64750;52.134;5.424;2023-02-23T12:47:06;101821.00;;;8.21;88.50
72086;BME280;64750;52.134;5.424;2023-02-23T12:49:43;101828.78;;;8.25;88.39
72086;BME280;64750;52.134;5.424;2023-02-23T12:52:28;101833.88;;;8.28;88.27
72086;BME280;64750;52.134;5.424;2023-02-23T12:54:57;101834.78;;;8.27;87.32
72086;BME280;64750;52.134;5.424;2023-02-23T12:57:50;101837.53;;;8.24;87.38
72086;BME280;64750;52.134;5.424;2023-02-23T13:06:10;101834.72;;;8.30;86.99
72086;BME280;64750;52.134;5.424;2023-02-23T13:14:21;101812.78;;;8.32;87.16
72086;BME280;64750;52.134;5.424;2023-02-23T13:16:56;101807.69;;;8.28;85.95
72086;BME280;64750;52.134;5.424;2023-02-23T13:19:39;101812.84;;;8.31;86.23
72086;BME280;64750;52.134;5.424;2023-02-23T13:25:09;101812.09;;;8.27;85.54
72086;BME280;64750;52.134;5.424;2023-02-23T13:27:47;101818.25;;;8.26;86.26
72086;BME280;64750;52.134;5.424;2023-02-23T13:30:17;101809.34;;;8.30;86.31
72086;BME280;64750;52.134;5.424;2023-02-23T13:32:45;101816.38;;;8.30;86.05
72086;BME280;64750;52.134;5.424;2023-02-23T13:35:14;101799.63;;;8.34;86.11
72086;BME280;64750;52.134;5.424;2023-02-23T13:37:51;101802.31;;;8.32;85.54
72086;BME280;64750;52.134;5.424;2023-02-23T13:45:51;101819.47;;;8.41;85.87
72086;BME280;64750;52.134;5.424;2023-02-23T13:48:40;101809.00;;;8.41;85.69
72086;BME280;64750;52.134;5.424;2023-02-23T13:51:41;101809.00;;;8.41;85.87
72086;BME280;64750;52.134;5.424;2023-02-23T13:56:45;101814.44;;;8.35;86.41
72086;BME280;64750;52.134;5.424;2023-02-23T13:59:21;101823.84;;;8.41;86.78
72086;BME280;64750;52.134;5.424;2023-02-23T14:01:50;101815.97;;;8.41;86.52
72086;BME280;64750;52.134;5.424;2023-02-23T14:04:27;101826.47;;;8.41;87.02
72086;BME280;64750;52.134;5.424;2023-02-23T14:09:40;101823.97;;;8.37;87.12
72086;BME280;64750;52.134;5.424;2023-02-23T14:19:42;101821.50;;;8.33;86.72
72086;BME280;64750;52.134;5.424;2023-02-23T14:22:13;101827.41;;;8.38;86.61
72086;BME280;64750;52.134;5.424;2023-02-23T14:24:41;101841.28;;;8.42;86.39
72086;BME280;64750;52.134;5.424;2023-02-23T14:27:36;101837.00;;;8.39;86.36
72086;BME280;64750;52.134;5.424;2023-02-23T14:32:45;101829.59;;;8.52;86.96
72086;BME280;64750;52.134;5.424;2023-02-23T14:37:59;101831.38;;;8.51;86.81
72086;BME280;64750;52.134;5.424;2023-02-23T14:40:37;101831.38;;;8.51;86.19
72086;BME280;64750;52.134;5.424;2023-02-23T14:46:24;101825.44;;;8.46;86.16
72086;BME280;64750;52.134;5.424;2023-02-23T14:49:05;101826.44;;;8.42;85.78
72086;BME280;64750;52.134;5.424;2023-02-23T14:51:40;101837.97;;;8.36;85.32
72086;BME280;64750;52.134;5.424;2023-02-23T14:54:30;101825.78;;;8.35;85.69
72086;BME280;64750;52.134;5.424;2023-02-23T14:57:00;101827.75;;;8.29;85.87
72086;BME280;64750;52.134;5.424;2023-02-23T14:59:38;101833.69;;;8.34;85.69
72086;BME280;64750;52.134;5.424;2023-02-23T15:02:17;101836.44;;;8.29;85.94
72086;BME280;64750;52.134;5.424;2023-02-23T15:04:44;101838.09;;;8.32;86.31